Ta stran je v izdelavi. - This website is under construction. - Deze website is in opbouw. - Ce site est en construction. - Diese Website ist im Aufbau.
Prosim, vrnite se kasneje.  Please return later. Schauen Sie bitte später nochmals an.  S'il vous plaît revenir plus tard.  Komt u straks nog eens terug

Rakitna Rakitna

Učna pot


Napoved ravni onesnaženosti z delci PM10 več informacij Air pollution


Kamera VP Rakitna več informacij Weather station camera


Cestna kamera več informacij Road camera


ARSO, spremljajte nas več informacij


Obiščite še:

Template documentacija
in prenos

in še drugo stran



Veter Od: 21-10-2021 00:00 Do: 19:59 Opozorilo za: Veter Stopnja: Rumena info button

METAR v bližini

   
LJLJ - Ljubljana
Posodobljeno: 21-10-2021 17:00
rahel dež, oblačno  
rahel dež, oblačno  
   Veter: SV 5.6 km/h
Veter: SV 5.6 km/h
Temperatura: 13°C
Točka rosišča: 12°C
Vlažnost: 94%
Zračni tlak: 1012 hPa
Oblaki: oblačno
Vidljivost: 6 km
Podrobnosti o oblakih: delno oblačno 1000 ft,
oblačno 3300 ft
LJLJ 211500Z 04003KT 6000 -RA SCT010 OVC033 13/12 Q1012 NOSIG
LJCE - Cerklje ob Krki
Posodobljeno: 21-10-2021 17:00
pretežno oblačno  
pretežno oblačno  
   Veter: ZJZ 16.7 km/h
Veter: ZJZ 16.7 km/h
Temperatura: 18°C
Točka rosišča: 10°C
Vlažnost: 60%
Zračni tlak: 1012 hPa
Oblaki: pretežno oblačno
Vidljivost: več kot 10 km
Podrobnosti o oblakih: nekaj oblakov 4000 ft,
pretežno oblačno 5000 ft
LJCE 211500Z 24009KT 9999 FEW040 BKN050 18/10 Q1012 RMK BLU
LJMB - Maribor
Posodobljeno: 21-10-2021 17:00
pretežno oblačno  
pretežno oblačno  
   Veter: JZ 33.3 km/h<br />Gust to 33.3 km/h
Veter: JZ 33.3 km/h
Gust to 33.3 km/h
Temperatura: 16°C
Točka rosišča: 10°C
Vlažnost: 68%
Zračni tlak: 1010 hPa
Oblaki: pretežno oblačno
Vidljivost: več kot 10 km
Podrobnosti o oblakih: nekaj oblakov 3200 ft,
delno oblačno 9200 ft,
pretežno oblačno 18000 ft
LJMB 211500Z 22018G31KT 9999 FEW032 SCT092 BKN180 16/10 Q1010
LJPZ - Portorož
Posodobljeno: 21-10-2021 17:00
pretežno oblačno  
pretežno oblačno  
   Veter: JJV 13 km/h
Veter: JJV 13 km/h
Temperatura: 18°C
Točka rosišča: 12°C
Vlažnost: 68%
Zračni tlak: 1013 hPa
Oblaki: pretežno oblačno
Vidljivost: več kot 10 km
Podrobnosti o oblakih: pretežno oblačno 4500 ft
LJPZ 211500Z 15007KT 110V190 9999 BKN045 18/12 Q1013
LDRI - Rijeka, Airport, Croatia
Posodobljeno: 21-10-2021 17:00
pretežno oblačno  
pretežno oblačno  
   Veter: JJV 16.7 km/h
Veter: JJV 16.7 km/h
Temperatura: 17°C
Točka rosišča: 14°C
Vlažnost: 83%
Zračni tlak: 1014 hPa
Oblaki: pretežno oblačno
Vidljivost: več kot 10 km
Podrobnosti o oblakih: nekaj oblakov 2000 ft,
delno oblačno 5000 ft,
pretežno oblačno 7000 ft
LDRI 211500Z 15009KT 120V210 9999 FEW020 SCT050 BKN070 17/14 Q1014
LOWK - Klagenfurt, Airport, Avstia
Posodobljeno: 21-10-2021 16:50
pretežno oblačno  
pretežno oblačno  
   Veter: JZ 5.6 km/h
Veter: JZ 5.6 km/h
Temperatura: 17°C
Točka rosišča: 9°C
Vlažnost: 59%
Zračni tlak: 1011 hPa
Oblaki: pretežno oblačno
Vidljivost: več kot 10 km
Podrobnosti o oblakih: nekaj oblakov 3500 ft,
pretežno oblačno 6000 ft
LOWK 211450Z 22003KT 130V270 9999 FEW035 BKN060 17/09 Q1011 NOSIG

Script developed by  Saratoga-weather.org Adapted for the template by  Weerstation Leuven

Vremenski podatki so objavljeni na:

Slovenska vremenska mreža

WeatherlinkIP

MapView

Geostik

Oprema, ki se uporablja:

Vremenska postaja
Davis VP2+ ventilirana

Vremenski program
WeatherLink

Vremenski server
Shuttle XS35V4

Ponudnik
Vremensko društvo ZEVS

Davis VP2+ ventilirana

WeatherLink

Shuttle XS35V4

Vremensko društvo ZEVS

Meteorološki podatki vremenske postaje Rakitna so neuradni, meteorološka postaja sama pa ni del državne mreže Agencije Republike Slovenije za okolje (ARSO),
je pa vključena v Vremensko društvo ZEVS. Prikazani podatki so izmerjeni točno, vendar so zgolj informativni in nimajo značaja uradnega podatka.

Podatke meri vremenska postaja "Davis VP2+ ventilirana" od 05.03.2011 dalje.

Opozarjamo, da ne prevzamemo odgovornosti za morebitno nastalo škodo, ki bi nastala zaradi odločitve, sprejete na osnovi teh podatkov!